ASL44Q LOWW-LYBE
Flight info
| Callsign | ASL44Q |
|---|---|
| Flight time | 1h 4m |
| Altitude | 19000 |
| Route | ARSIN DCT NALOX DCT BABIT T23 RIGMU |
| Aircraft | AT76/M-SDFGIRY/S |
Departure
| Time | 2026-05-06 18:28 |
|---|---|
| Airport | Vienna International Airport (LOWW) |
Arrival
| Time | 2026-05-06 19:33 |
|---|---|
| Airport | Belgrade Nikola Tesla Airport (LYBE) |
| Time | Latitude | Longitude | Altitude | Speed | Heading |
|---|---|---|---|---|---|
| 2026-05-06 18:08 | 48.11670 | 16.56349 | 606 ft | 0 kts | 206° |
| 2026-05-06 18:24 | 48.11669 | 16.56348 | 607 ft | 0 kts | 206° |
| 2026-05-06 18:24 | 48.11649 | 16.56334 | 613 ft | 5 kts | 206° |
| 2026-05-06 18:24 | 48.11618 | 16.56323 | 615 ft | 7 kts | 163° |
| 2026-05-06 18:24 | 48.11579 | 16.56420 | 612 ft | 11 kts | 116° |
| 2026-05-06 18:25 | 48.11554 | 16.56499 | 618 ft | 7 kts | 116° |
| 2026-05-06 18:25 | 48.11526 | 16.56583 | 615 ft | 13 kts | 116° |
| 2026-05-06 18:25 | 48.11482 | 16.56720 | 615 ft | 15 kts | 116° |
| 2026-05-06 18:25 | 48.11432 | 16.56872 | 606 ft | 18 kts | 116° |
| 2026-05-06 18:26 | 48.11371 | 16.57058 | 615 ft | 16 kts | 116° |
| 2026-05-06 18:26 | 48.11332 | 16.57180 | 611 ft | 11 kts | 116° |
| 2026-05-06 18:26 | 48.11293 | 16.57298 | 618 ft | 14 kts | 116° |
| 2026-05-06 18:26 | 48.11247 | 16.57440 | 615 ft | 16 kts | 116° |
| 2026-05-06 18:27 | 48.11195 | 16.57599 | 611 ft | 17 kts | 116° |
| 2026-05-06 18:27 | 48.11151 | 16.57735 | 614 ft | 13 kts | 116° |
| 2026-05-06 18:27 | 48.11111 | 16.57858 | 615 ft | 12 kts | 116° |
| 2026-05-06 18:27 | 48.11058 | 16.58024 | 610 ft | 25 kts | 115° |
| 2026-05-06 18:28 | 48.10927 | 16.58247 | 606 ft | 47 kts | 153° |
| 2026-05-06 18:28 | 48.10417 | 16.58478 | 618 ft | 103 kts | 164° |
| 2026-05-06 18:28 | 48.09717 | 16.58792 | 1115 ft | 102 kts | 161° |
| 2026-05-06 18:28 | 48.09043 | 16.59129 | 1734 ft | 102 kts | 163° |
| 2026-05-06 18:29 | 48.08376 | 16.59502 | 2401 ft | 97 kts | 166° |
| 2026-05-06 18:29 | 48.07731 | 16.59851 | 2899 ft | 106 kts | 170° |
| 2026-05-06 18:29 | 48.07017 | 16.60214 | 3229 ft | 113 kts | 170° |
| 2026-05-06 18:29 | 48.06252 | 16.60611 | 3546 ft | 121 kts | 170° |
| 2026-05-06 18:30 | 48.05379 | 16.61051 | 3667 ft | 143 kts | 170° |
| 2026-05-06 18:30 | 48.04391 | 16.61523 | 3979 ft | 151 kts | 169° |
| 2026-05-06 18:30 | 48.03397 | 16.61994 | 4386 ft | 153 kts | 172° |
| 2026-05-06 18:30 | 48.02327 | 16.62303 | 4701 ft | 160 kts | 178° |
| 2026-05-06 18:31 | 48.01197 | 16.62531 | 5052 ft | 164 kts | 179° |
| 2026-05-06 18:31 | 48.00066 | 16.62757 | 5475 ft | 164 kts | 178° |
| 2026-05-06 18:31 | 47.98945 | 16.63029 | 5852 ft | 168 kts | 176° |
| 2026-05-06 18:31 | 47.97781 | 16.63345 | 6192 ft | 171 kts | 175° |
| 2026-05-06 18:32 | 47.96607 | 16.63681 | 6560 ft | 173 kts | 175° |
| 2026-05-06 18:32 | 47.95415 | 16.64029 | 6886 ft | 175 kts | 174° |
| 2026-05-06 18:32 | 47.94216 | 16.64390 | 7233 ft | 176 kts | 174° |
| 2026-05-06 18:32 | 47.93013 | 16.64753 | 7597 ft | 177 kts | 175° |
| 2026-05-06 18:33 | 47.91818 | 16.65115 | 7953 ft | 178 kts | 175° |
| 2026-05-06 18:33 | 47.90600 | 16.65471 | 8333 ft | 178 kts | 175° |
| 2026-05-06 18:33 | 47.89378 | 16.65831 | 8758 ft | 180 kts | 175° |
| 2026-05-06 18:33 | 47.88143 | 16.66190 | 9162 ft | 180 kts | 175° |
| 2026-05-06 18:34 | 47.86906 | 16.66554 | 9564 ft | 182 kts | 175° |
| 2026-05-06 18:34 | 47.85657 | 16.66924 | 9891 ft | 184 kts | 175° |
| 2026-05-06 18:34 | 47.84415 | 16.67287 | 10220 ft | 184 kts | 175° |
| 2026-05-06 18:34 | 47.83156 | 16.67656 | 10578 ft | 184 kts | 175° |
| 2026-05-06 18:35 | 47.81894 | 16.68030 | 10907 ft | 185 kts | 174° |
| 2026-05-06 18:35 | 47.80627 | 16.68398 | 11215 ft | 186 kts | 175° |
| 2026-05-06 18:35 | 47.79353 | 16.68771 | 11526 ft | 187 kts | 174° |
| 2026-05-06 18:35 | 47.78072 | 16.69146 | 11863 ft | 188 kts | 174° |
| 2026-05-06 18:36 | 47.76788 | 16.69519 | 12168 ft | 188 kts | 174° |
| 2026-05-06 18:36 | 47.75497 | 16.69890 | 12504 ft | 189 kts | 174° |
| 2026-05-06 18:36 | 47.74200 | 16.70269 | 12827 ft | 190 kts | 174° |
| 2026-05-06 18:36 | 47.72896 | 16.70650 | 13133 ft | 191 kts | 174° |
| 2026-05-06 18:37 | 47.71608 | 16.71023 | 13427 ft | 192 kts | 174° |
| 2026-05-06 18:37 | 47.70295 | 16.71402 | 13715 ft | 193 kts | 174° |
| 2026-05-06 18:37 | 47.68971 | 16.71786 | 13980 ft | 193 kts | 174° |
| 2026-05-06 18:37 | 47.67646 | 16.72167 | 14239 ft | 194 kts | 174° |
| 2026-05-06 18:38 | 47.66317 | 16.72554 | 14479 ft | 195 kts | 174° |
| 2026-05-06 18:38 | 47.64981 | 16.72942 | 14714 ft | 196 kts | 174° |
| 2026-05-06 18:38 | 47.63636 | 16.73330 | 14965 ft | 197 kts | 174° |
| 2026-05-06 18:38 | 47.62287 | 16.73719 | 15238 ft | 198 kts | 174° |
| 2026-05-06 18:39 | 47.60926 | 16.74111 | 15504 ft | 199 kts | 174° |
| 2026-05-06 18:39 | 47.59579 | 16.74511 | 15749 ft | 200 kts | 174° |
| 2026-05-06 18:39 | 47.58280 | 16.75357 | 15930 ft | 211 kts | 144° |
| 2026-05-06 18:40 | 47.56192 | 16.78516 | 16335 ft | 216 kts | 143° |
| 2026-05-06 18:40 | 47.55071 | 16.80000 | 16564 ft | 216 kts | 145° |
| 2026-05-06 18:40 | 47.53934 | 16.81469 | 16783 ft | 217 kts | 145° |
| 2026-05-06 18:40 | 47.52796 | 16.82956 | 16997 ft | 218 kts | 144° |
| 2026-05-06 18:41 | 47.51671 | 16.84480 | 17194 ft | 220 kts | 143° |
| 2026-05-06 18:41 | 47.50558 | 16.86001 | 17395 ft | 221 kts | 143° |
| 2026-05-06 18:41 | 47.49424 | 16.87552 | 17615 ft | 222 kts | 143° |
| 2026-05-06 18:41 | 47.48284 | 16.89109 | 17868 ft | 223 kts | 143° |
| 2026-05-06 18:42 | 47.47140 | 16.90677 | 18090 ft | 224 kts | 143° |
| 2026-05-06 18:42 | 47.45992 | 16.92244 | 18287 ft | 225 kts | 143° |
| 2026-05-06 18:42 | 47.44850 | 16.93805 | 18456 ft | 226 kts | 143° |
| 2026-05-06 18:42 | 47.43693 | 16.95384 | 18643 ft | 226 kts | 143° |
| 2026-05-06 18:43 | 47.42526 | 16.96973 | 18747 ft | 230 kts | 142° |
| 2026-05-06 18:43 | 47.41330 | 16.98605 | 18796 ft | 237 kts | 142° |
| 2026-05-06 18:43 | 47.40101 | 17.00281 | 18821 ft | 243 kts | 142° |
| 2026-05-06 18:43 | 47.38862 | 17.01967 | 18830 ft | 248 kts | 142° |
| 2026-05-06 18:44 | 47.37580 | 17.03711 | 18838 ft | 252 kts | 142° |
| 2026-05-06 18:44 | 47.36278 | 17.05480 | 18838 ft | 255 kts | 142° |
| 2026-05-06 18:44 | 47.34963 | 17.07267 | 18846 ft | 258 kts | 142° |
| 2026-05-06 18:44 | 47.33649 | 17.09052 | 18844 ft | 260 kts | 142° |
| 2026-05-06 18:45 | 47.32310 | 17.10869 | 18851 ft | 262 kts | 142° |
| 2026-05-06 18:45 | 47.30966 | 17.12690 | 18848 ft | 264 kts | 142° |
| 2026-05-06 18:45 | 47.29606 | 17.14531 | 18846 ft | 266 kts | 142° |
| 2026-05-06 18:45 | 47.28247 | 17.16374 | 18854 ft | 270 kts | 142° |
| 2026-05-06 18:46 | 47.26855 | 17.18258 | 18851 ft | 271 kts | 142° |
| 2026-05-06 18:46 | 47.25467 | 17.20136 | 18856 ft | 270 kts | 142° |
| 2026-05-06 18:46 | 47.24082 | 17.22007 | 18854 ft | 269 kts | 142° |
| 2026-05-06 18:46 | 47.22716 | 17.23846 | 18856 ft | 269 kts | 142° |
| 2026-05-06 18:47 | 47.21333 | 17.25713 | 18856 ft | 268 kts | 142° |
| 2026-05-06 18:47 | 47.19958 | 17.27568 | 18861 ft | 268 kts | 142° |
| 2026-05-06 18:47 | 47.18581 | 17.29421 | 18857 ft | 268 kts | 142° |
| 2026-05-06 18:47 | 47.17203 | 17.31273 | 18854 ft | 268 kts | 142° |
| 2026-05-06 18:48 | 47.15845 | 17.33097 | 18864 ft | 267 kts | 142° |
| 2026-05-06 18:48 | 47.14471 | 17.34950 | 18865 ft | 268 kts | 142° |
| 2026-05-06 18:48 | 47.13095 | 17.36794 | 18870 ft | 268 kts | 142° |
| 2026-05-06 18:48 | 47.11713 | 17.38648 | 18867 ft | 268 kts | 142° |
| 2026-05-06 18:49 | 47.10332 | 17.40496 | 18858 ft | 268 kts | 142° |
| 2026-05-06 18:49 | 47.08955 | 17.42344 | 18869 ft | 268 kts | 142° |
| 2026-05-06 18:49 | 47.07589 | 17.44169 | 18878 ft | 268 kts | 142° |
| 2026-05-06 18:49 | 47.06208 | 17.46023 | 18880 ft | 269 kts | 142° |
| 2026-05-06 18:50 | 47.04836 | 17.47855 | 18883 ft | 269 kts | 143° |
| 2026-05-06 18:50 | 47.03449 | 17.49705 | 18873 ft | 270 kts | 143° |
| 2026-05-06 18:50 | 47.02060 | 17.51556 | 18886 ft | 269 kts | 143° |
| 2026-05-06 18:50 | 47.00669 | 17.53411 | 18875 ft | 269 kts | 143° |
| 2026-05-06 18:51 | 46.99279 | 17.55266 | 18891 ft | 269 kts | 143° |
| 2026-05-06 18:51 | 46.97911 | 17.57085 | 18886 ft | 269 kts | 143° |
| 2026-05-06 18:51 | 46.96526 | 17.58931 | 18887 ft | 269 kts | 143° |
| 2026-05-06 18:51 | 46.95143 | 17.60770 | 18892 ft | 268 kts | 143° |
| 2026-05-06 18:52 | 46.93758 | 17.62607 | 18892 ft | 268 kts | 143° |
| 2026-05-06 18:52 | 46.92377 | 17.64446 | 18894 ft | 268 kts | 143° |
| 2026-05-06 18:52 | 46.91007 | 17.66264 | 18899 ft | 268 kts | 143° |
| 2026-05-06 18:52 | 46.89618 | 17.68104 | 18900 ft | 268 kts | 143° |
| 2026-05-06 18:53 | 46.88221 | 17.69955 | 18902 ft | 271 kts | 143° |
| 2026-05-06 18:53 | 46.86823 | 17.71804 | 18904 ft | 270 kts | 143° |
| 2026-05-06 18:53 | 46.85447 | 17.73627 | 18897 ft | 270 kts | 143° |
| 2026-05-06 18:53 | 46.84049 | 17.75475 | 18901 ft | 269 kts | 143° |
| 2026-05-06 18:54 | 46.82669 | 17.77296 | 18903 ft | 269 kts | 143° |
| 2026-05-06 18:54 | 46.81279 | 17.79134 | 18905 ft | 269 kts | 143° |
| 2026-05-06 18:54 | 46.79888 | 17.80968 | 18910 ft | 269 kts | 143° |
| 2026-05-06 18:54 | 46.78492 | 17.82804 | 18911 ft | 269 kts | 143° |
| 2026-05-06 18:55 | 46.77116 | 17.84621 | 18912 ft | 269 kts | 143° |
| 2026-05-06 18:55 | 46.75719 | 17.86461 | 18915 ft | 269 kts | 143° |
| 2026-05-06 18:55 | 46.74321 | 17.88296 | 18919 ft | 270 kts | 143° |
| 2026-05-06 18:55 | 46.72936 | 17.90115 | 18911 ft | 271 kts | 143° |
| 2026-05-06 18:56 | 46.71532 | 17.91962 | 18913 ft | 271 kts | 143° |
| 2026-05-06 18:56 | 46.70133 | 17.93798 | 18917 ft | 271 kts | 143° |
| 2026-05-06 18:56 | 46.68732 | 17.95634 | 18913 ft | 271 kts | 143° |
| 2026-05-06 18:56 | 46.67346 | 17.97454 | 18919 ft | 271 kts | 143° |
| 2026-05-06 18:57 | 46.65942 | 17.99291 | 18922 ft | 271 kts | 143° |
| 2026-05-06 18:57 | 46.64542 | 18.01126 | 18916 ft | 271 kts | 143° |
| 2026-05-06 18:57 | 46.63134 | 18.02966 | 18913 ft | 271 kts | 143° |
| 2026-05-06 18:57 | 46.61728 | 18.04801 | 18923 ft | 270 kts | 142° |
| 2026-05-06 18:58 | 46.60329 | 18.06633 | 18920 ft | 270 kts | 143° |
| 2026-05-06 18:58 | 46.58946 | 18.08436 | 18919 ft | 270 kts | 143° |
| 2026-05-06 18:58 | 46.57544 | 18.10263 | 18917 ft | 270 kts | 143° |
| 2026-05-06 18:58 | 46.56144 | 18.12090 | 18921 ft | 269 kts | 143° |
| 2026-05-06 18:59 | 46.54743 | 18.13913 | 18928 ft | 269 kts | 143° |
| 2026-05-06 18:59 | 46.53347 | 18.15730 | 18926 ft | 269 kts | 142° |
| 2026-05-06 18:59 | 46.51958 | 18.17536 | 18929 ft | 269 kts | 143° |
| 2026-05-06 18:59 | 46.50581 | 18.19323 | 18927 ft | 269 kts | 143° |
| 2026-05-06 19:00 | 46.49186 | 18.21138 | 18926 ft | 269 kts | 142° |
| 2026-05-06 19:00 | 46.47784 | 18.22954 | 18933 ft | 268 kts | 142° |
| 2026-05-06 19:00 | 46.46391 | 18.24760 | 18929 ft | 269 kts | 142° |
| 2026-05-06 19:00 | 46.45466 | 18.25962 | 18933 ft | 268 kts | 142° |
| 2026-05-06 19:01 | 46.43619 | 18.28352 | 18938 ft | 268 kts | 142° |
| 2026-05-06 19:01 | 46.42224 | 18.30159 | 18935 ft | 268 kts | 142° |
| 2026-05-06 19:01 | 46.40826 | 18.31966 | 18934 ft | 268 kts | 142° |
| 2026-05-06 19:01 | 46.39448 | 18.33744 | 18943 ft | 268 kts | 142° |
| 2026-05-06 19:02 | 46.38053 | 18.35545 | 18947 ft | 269 kts | 142° |
| 2026-05-06 19:02 | 46.36654 | 18.37352 | 18949 ft | 269 kts | 142° |
| 2026-05-06 19:02 | 46.35249 | 18.39162 | 18936 ft | 269 kts | 142° |
| 2026-05-06 19:02 | 46.33848 | 18.40971 | 18936 ft | 269 kts | 142° |
| 2026-05-06 19:03 | 46.32465 | 18.42747 | 18939 ft | 269 kts | 142° |
| 2026-05-06 19:03 | 46.31065 | 18.44552 | 18937 ft | 269 kts | 142° |
| 2026-05-06 19:03 | 46.29664 | 18.46352 | 18938 ft | 269 kts | 142° |
| 2026-05-06 19:03 | 46.28263 | 18.48149 | 18939 ft | 269 kts | 142° |
| 2026-05-06 19:04 | 46.26863 | 18.49951 | 18934 ft | 269 kts | 142° |
| 2026-05-06 19:04 | 46.25483 | 18.51720 | 18942 ft | 268 kts | 142° |
| 2026-05-06 19:04 | 46.24086 | 18.53510 | 18937 ft | 268 kts | 142° |
| 2026-05-06 19:04 | 46.22686 | 18.55306 | 18938 ft | 268 kts | 142° |
| 2026-05-06 19:05 | 46.21294 | 18.57086 | 18937 ft | 268 kts | 142° |
| 2026-05-06 19:05 | 46.19898 | 18.58872 | 18939 ft | 267 kts | 142° |
| 2026-05-06 19:05 | 46.18503 | 18.60656 | 18939 ft | 267 kts | 142° |
| 2026-05-06 19:05 | 46.17127 | 18.62414 | 18940 ft | 267 kts | 142° |
| 2026-05-06 19:06 | 46.15732 | 18.64199 | 18943 ft | 267 kts | 142° |
| 2026-05-06 19:06 | 46.14337 | 18.65973 | 18937 ft | 267 kts | 142° |
| 2026-05-06 19:06 | 46.13416 | 18.67154 | 18931 ft | 267 kts | 142° |
| 2026-05-06 19:06 | 46.11569 | 18.69517 | 18934 ft | 267 kts | 142° |
| 2026-05-06 19:07 | 46.10173 | 18.71288 | 18941 ft | 267 kts | 142° |
| 2026-05-06 19:07 | 46.09243 | 18.72463 | 18939 ft | 267 kts | 142° |
| 2026-05-06 19:07 | 46.07848 | 18.74240 | 18932 ft | 267 kts | 142° |
| 2026-05-06 19:07 | 46.05999 | 18.76588 | 18938 ft | 267 kts | 142° |
| 2026-05-06 19:08 | 46.05055 | 18.77787 | 18931 ft | 267 kts | 142° |
| 2026-05-06 19:08 | 46.03674 | 18.79542 | 18931 ft | 266 kts | 142° |
| 2026-05-06 19:08 | 46.02288 | 18.81300 | 18933 ft | 266 kts | 142° |
| 2026-05-06 19:08 | 46.00894 | 18.83063 | 18935 ft | 266 kts | 142° |
| 2026-05-06 19:09 | 45.99501 | 18.84823 | 18933 ft | 266 kts | 142° |
| 2026-05-06 19:09 | 45.98113 | 18.86585 | 18938 ft | 266 kts | 142° |
| 2026-05-06 19:09 | 45.96714 | 18.88348 | 18933 ft | 266 kts | 142° |
| 2026-05-06 19:09 | 45.95339 | 18.90089 | 18935 ft | 266 kts | 142° |
| 2026-05-06 19:10 | 45.93943 | 18.91849 | 18932 ft | 267 kts | 142° |
| 2026-05-06 19:10 | 45.92524 | 18.93563 | 18929 ft | 265 kts | 146° |
| 2026-05-06 19:10 | 45.91015 | 18.95032 | 18929 ft | 263 kts | 151° |
| 2026-05-06 19:10 | 45.89445 | 18.96397 | 18928 ft | 263 kts | 153° |
| 2026-05-06 19:11 | 45.87872 | 18.97751 | 18929 ft | 263 kts | 152° |
| 2026-05-06 19:11 | 45.86305 | 18.99123 | 18932 ft | 264 kts | 151° |
| 2026-05-06 19:11 | 45.84769 | 19.00510 | 18934 ft | 264 kts | 151° |
| 2026-05-06 19:11 | 45.83218 | 19.01924 | 18932 ft | 264 kts | 151° |
| 2026-05-06 19:12 | 45.81668 | 19.03343 | 18925 ft | 265 kts | 150° |
| 2026-05-06 19:12 | 45.80115 | 19.04777 | 18930 ft | 265 kts | 150° |
| 2026-05-06 19:12 | 45.78562 | 19.06206 | 18932 ft | 265 kts | 151° |
| 2026-05-06 19:12 | 45.77002 | 19.07627 | 18929 ft | 265 kts | 151° |
| 2026-05-06 19:13 | 45.75446 | 19.09038 | 18928 ft | 265 kts | 151° |
| 2026-05-06 19:13 | 45.73905 | 19.10434 | 18925 ft | 265 kts | 151° |
| 2026-05-06 19:13 | 45.72340 | 19.11849 | 18928 ft | 266 kts | 151° |
| 2026-05-06 19:13 | 45.70777 | 19.13262 | 18924 ft | 266 kts | 151° |
| 2026-05-06 19:14 | 45.69211 | 19.14681 | 18924 ft | 266 kts | 151° |
| 2026-05-06 19:14 | 45.67646 | 19.16101 | 18927 ft | 266 kts | 151° |
| 2026-05-06 19:14 | 45.66081 | 19.17516 | 18931 ft | 266 kts | 151° |
| 2026-05-06 19:14 | 45.64514 | 19.18935 | 18927 ft | 266 kts | 151° |
| 2026-05-06 19:15 | 45.62972 | 19.20328 | 18929 ft | 266 kts | 151° |
| 2026-05-06 19:15 | 45.61408 | 19.21740 | 18925 ft | 266 kts | 151° |
| 2026-05-06 19:15 | 45.59843 | 19.23149 | 18926 ft | 265 kts | 151° |
| 2026-05-06 19:15 | 45.58279 | 19.24560 | 18887 ft | 268 kts | 151° |
| 2026-05-06 19:16 | 45.56686 | 19.25992 | 18773 ft | 272 kts | 151° |
| 2026-05-06 19:16 | 45.55075 | 19.27441 | 18653 ft | 275 kts | 151° |
| 2026-05-06 19:16 | 45.53462 | 19.28893 | 18542 ft | 278 kts | 151° |
| 2026-05-06 19:16 | 45.51799 | 19.30388 | 18233 ft | 287 kts | 150° |
| 2026-05-06 19:17 | 45.50081 | 19.31928 | 17869 ft | 294 kts | 150° |
| 2026-05-06 19:17 | 45.48330 | 19.33504 | 17493 ft | 300 kts | 150° |
| 2026-05-06 19:17 | 45.46556 | 19.35098 | 17098 ft | 300 kts | 150° |
| 2026-05-06 19:17 | 45.44793 | 19.36682 | 16705 ft | 298 kts | 150° |
| 2026-05-06 19:18 | 45.43039 | 19.38254 | 16322 ft | 297 kts | 150° |
| 2026-05-06 19:18 | 45.41308 | 19.39804 | 15948 ft | 297 kts | 150° |
| 2026-05-06 19:18 | 45.39561 | 19.41365 | 15579 ft | 296 kts | 150° |
| 2026-05-06 19:18 | 45.37816 | 19.42922 | 15217 ft | 295 kts | 150° |
| 2026-05-06 19:19 | 45.36080 | 19.44474 | 14842 ft | 294 kts | 150° |
| 2026-05-06 19:19 | 45.34352 | 19.46018 | 14486 ft | 292 kts | 150° |
| 2026-05-06 19:19 | 45.32657 | 19.47528 | 14141 ft | 290 kts | 150° |
| 2026-05-06 19:19 | 45.30950 | 19.49050 | 13790 ft | 288 kts | 150° |
| 2026-05-06 19:20 | 45.29258 | 19.50555 | 13415 ft | 285 kts | 150° |
| 2026-05-06 19:20 | 45.27590 | 19.52041 | 13041 ft | 282 kts | 150° |
| 2026-05-06 19:20 | 45.25934 | 19.53515 | 12662 ft | 280 kts | 150° |
| 2026-05-06 19:20 | 45.24266 | 19.54890 | 12300 ft | 273 kts | 160° |
| 2026-05-06 19:21 | 45.22459 | 19.55634 | 11965 ft | 269 kts | 169° |
| 2026-05-06 19:21 | 45.20646 | 19.56179 | 11625 ft | 268 kts | 171° |
| 2026-05-06 19:21 | 45.18819 | 19.56723 | 11299 ft | 268 kts | 169° |
| 2026-05-06 19:21 | 45.17002 | 19.57330 | 10975 ft | 268 kts | 168° |
| 2026-05-06 19:22 | 45.15187 | 19.57996 | 10645 ft | 268 kts | 168° |
| 2026-05-06 19:22 | 45.13455 | 19.58802 | 10307 ft | 266 kts | 153° |
| 2026-05-06 19:22 | 45.12120 | 19.60635 | 9993 ft | 271 kts | 129° |
| 2026-05-06 19:22 | 45.11129 | 19.62919 | 9662 ft | 273 kts | 123° |
| 2026-05-06 19:23 | 45.10214 | 19.65288 | 9304 ft | 274 kts | 122° |
| 2026-05-06 19:23 | 45.09300 | 19.67643 | 8949 ft | 272 kts | 122° |
| 2026-05-06 19:23 | 45.08361 | 19.69916 | 8603 ft | 269 kts | 124° |
| 2026-05-06 19:23 | 45.07395 | 19.72161 | 8259 ft | 266 kts | 124° |
| 2026-05-06 19:24 | 45.06443 | 19.74390 | 7925 ft | 263 kts | 124° |
| 2026-05-06 19:24 | 45.05497 | 19.76598 | 7604 ft | 261 kts | 124° |
| 2026-05-06 19:24 | 45.04558 | 19.78795 | 7280 ft | 259 kts | 124° |
| 2026-05-06 19:24 | 45.03641 | 19.80942 | 6970 ft | 258 kts | 124° |
| 2026-05-06 19:25 | 45.02710 | 19.83112 | 6658 ft | 257 kts | 124° |
| 2026-05-06 19:25 | 45.01786 | 19.85270 | 6354 ft | 256 kts | 124° |
| 2026-05-06 19:25 | 45.00860 | 19.87420 | 6020 ft | 255 kts | 124° |
| 2026-05-06 19:25 | 44.99942 | 19.89563 | 5699 ft | 254 kts | 124° |
| 2026-05-06 19:26 | 44.99040 | 19.91663 | 5377 ft | 252 kts | 124° |
| 2026-05-06 19:26 | 44.98203 | 19.93609 | 5090 ft | 249 kts | 124° |
| 2026-05-06 19:26 | 44.97304 | 19.95698 | 4789 ft | 247 kts | 124° |
| 2026-05-06 19:26 | 44.96413 | 19.97770 | 4479 ft | 246 kts | 124° |
| 2026-05-06 19:27 | 44.95554 | 19.99779 | 4188 ft | 226 kts | 123° |
| 2026-05-06 19:27 | 44.94775 | 20.01595 | 3919 ft | 216 kts | 124° |
| 2026-05-06 19:27 | 44.94009 | 20.03365 | 3644 ft | 202 kts | 124° |
| 2026-05-06 19:27 | 44.93295 | 20.05006 | 3406 ft | 192 kts | 124° |
| 2026-05-06 19:28 | 44.92590 | 20.06629 | 3204 ft | 194 kts | 124° |
| 2026-05-06 19:28 | 44.91895 | 20.08220 | 3103 ft | 192 kts | 124° |
| 2026-05-06 19:28 | 44.91195 | 20.09816 | 3059 ft | 190 kts | 124° |
| 2026-05-06 19:28 | 44.90523 | 20.11343 | 3018 ft | 190 kts | 124° |
| 2026-05-06 19:29 | 44.89822 | 20.12921 | 2901 ft | 184 kts | 125° |
| 2026-05-06 19:29 | 44.89150 | 20.14394 | 2695 ft | 174 kts | 126° |
| 2026-05-06 19:29 | 44.88572 | 20.15666 | 2487 ft | 167 kts | 124° |
| 2026-05-06 19:29 | 44.88054 | 20.16872 | 2306 ft | 158 kts | 124° |
| 2026-05-06 19:30 | 44.87483 | 20.18179 | 2105 ft | 155 kts | 125° |
| 2026-05-06 19:30 | 44.86911 | 20.19471 | 1906 ft | 155 kts | 124° |
| 2026-05-06 19:30 | 44.86340 | 20.20752 | 1697 ft | 155 kts | 124° |
| 2026-05-06 19:30 | 44.85772 | 20.22052 | 1484 ft | 154 kts | 123° |
| 2026-05-06 19:31 | 44.85255 | 20.23219 | 1296 ft | 128 kts | 125° |
| 2026-05-06 19:31 | 44.84832 | 20.24160 | 1152 ft | 114 kts | 124° |
| 2026-05-06 19:31 | 44.84014 | 20.26000 | 868 ft | 109 kts | 123° |
| 2026-05-06 19:32 | 44.83615 | 20.26911 | 726 ft | 109 kts | 122° |
| 2026-05-06 19:32 | 44.83214 | 20.27829 | 567 ft | 110 kts | 122° |
| 2026-05-06 19:32 | 44.82815 | 20.28728 | 399 ft | 109 kts | 122° |
| 2026-05-06 19:32 | 44.82418 | 20.29623 | 305 ft | 104 kts | 122° |
| 2026-05-06 19:33 | 44.82121 | 20.30299 | 301 ft | 48 kts | 121° |
| 2026-05-06 19:33 | 44.81993 | 20.30539 | 302 ft | 22 kts | 141° |
| 2026-05-06 19:33 | 44.81892 | 20.30633 | 303 ft | 14 kts | 151° |
| 2026-05-06 19:33 | 44.81813 | 20.30691 | 303 ft | 11 kts | 153° |
| 2026-05-06 19:34 | 44.81751 | 20.30728 | 305 ft | 7 kts | 186° |
| 2026-05-06 19:34 | 44.81764 | 20.30637 | 306 ft | 16 kts | 302° |
| 2026-05-06 19:34 | 44.81823 | 20.30503 | 305 ft | 16 kts | 301° |
| 2026-05-06 19:34 | 44.81884 | 20.30361 | 303 ft | 18 kts | 302° |
| 2026-05-06 19:35 | 44.81950 | 20.30215 | 304 ft | 18 kts | 302° |
| 2026-05-06 19:35 | 44.82015 | 20.30066 | 304 ft | 18 kts | 301° |
| 2026-05-06 19:35 | 44.82073 | 20.29935 | 303 ft | 10 kts | 302° |
| 2026-05-06 19:35 | 44.82114 | 20.29841 | 304 ft | 13 kts | 302° |
| 2026-05-06 19:36 | 44.82158 | 20.29724 | 304 ft | 10 kts | 275° |
| 2026-05-06 19:36 | 44.82112 | 20.29658 | 306 ft | 10 kts | 214° |
| 2026-05-06 19:36 | 44.82050 | 20.29602 | 306 ft | 11 kts | 213° |
| 2026-05-06 19:36 | 44.81981 | 20.29540 | 305 ft | 11 kts | 212° |
| 2026-05-06 19:37 | 44.81925 | 20.29491 | 303 ft | 8 kts | 212° |
| 2026-05-06 19:37 | 44.81877 | 20.29449 | 303 ft | 8 kts | 212° |
| 2026-05-06 19:37 | 44.81829 | 20.29407 | 304 ft | 9 kts | 212° |
| 2026-05-06 19:37 | 44.81795 | 20.29376 | 305 ft | 10 kts | 212° |
| 2026-05-06 19:38 | 44.81732 | 20.29349 | 303 ft | 5 kts | 140° |
| 2026-05-06 19:38 | 44.81710 | 20.29396 | 303 ft | 5 kts | 122° |
| 2026-05-06 19:38 | 44.81707 | 20.29403 | 303 ft | 0 kts | 122° |